McHenry, Mississippi
Current Conditions -  °F | °C
As of 12:53 AM on Wednesday 26 Nov 2014 (Local Time) from KGPT Reporting Station
Clear Clear  
Wind Chill: 38°   Ceiling: Unl
Heat Index: 42°   Visibility: 10mi
Dew Point: 32°   Wind: 7mph
Humidity: 67%   Direction: 310°NW
Pressure: 30.19"   Gusts: NA
Location:  30.71°N, 89.14°W
Report Text: KGPT 260653Z 31006KT 10SM CLR 06/00 A3019 RMK AO2 SLP222 T00560000 $
Loading
Personal Weather Stations






























Interactive Weather Map New forecast layout! Learn more

10-Day Weather Forecast

Advertisements
Track Severe Weather on mobile